Time;durP1;ratioP1;P1;durP2;ratioP2;P2;SDS_P1;SDS_P2;PMS_P1;PMS_P2;Temp;Humidity;BMP_temperature;BMP_pressure;BME280_temperature;BME280_humidity;BME280_pressure;Samples;Min_cycle;Max_cycle;Signal;HPM_P1;HPM_P2
2022/11/25 00:06:09;;;;;;;103.78;45.48;;;;;;;0.37;100.00;98973.41;4576723;77;21032;-88
2022/11/25 00:12:10;;;;;;;95.67;40.43;;;;;;;0.39;100.00;98979.30;4465447;78;21654;-87
2022/11/25 00:18:12;;;;;;;98.40;42.00;;;;;;;0.38;100.00;98976.88;4510868;77;21429;-89
2022/11/25 00:24:15;;;;;;;98.97;43.35;;;;;;;0.33;100.00;98985.89;4495575;77;21045;-89
2022/11/25 00:30:17;;;;;;;86.85;38.55;;;;;;;0.38;100.00;98982.27;4499585;77;22042;-88
2022/11/25 00:36:22;;;;;;;91.05;40.45;;;;;;;0.39;100.00;98987.91;4519274;77;20983;-89
2022/11/25 00:48:43;;;;;;;97.67;41.98;;;;;;;0.50;100.00;98987.32;4508355;77;21558;-90
2022/11/25 00:54:49;;;;;;;105.17;43.83;;;;;;;0.56;100.00;98995.54;4499641;77;21033;-89
2022/11/25 01:00:50;;;;;;;101.92;43.45;;;;;;;0.48;100.00;99000.33;4417337;78;21016;-89
2022/11/25 01:06:53;;;;;;;109.48;45.73;;;;;;;0.51;100.00;99002.94;4419900;78;21002;-90
2022/11/25 01:12:54;;;;;;;93.17;41.10;;;;;;;0.54;100.00;98999.09;4467071;78;21983;-89
2022/11/25 01:18:59;;;;;;;86.65;37.93;;;;;;;0.58;100.00;99004.66;4458704;78;21085;-90
2022/11/25 01:25:00;;;;;;;99.83;42.38;;;;;;;0.53;100.00;99006.12;4452489;78;20995;-90
2022/11/25 01:31:19;;;;;;;84.35;37.03;;;;;;;0.54;100.00;99009.86;4472306;78;21905;-91
2022/11/25 01:37:21;;;;;;;101.25;40.40;;;;;;;0.53;100.00;99009.63;4456459;78;20995;-91
2022/11/25 01:43:25;;;;;;;102.82;43.80;;;;;;;0.58;100.00;99010.05;4457854;77;21038;-91
2022/11/25 01:49:50;;;;;;;78.83;34.00;;;;;;;0.61;100.00;99013.47;4453545;78;20998;-90
2022/11/25 01:55:56;;;;;;;80.20;36.95;;;;;;;0.56;100.00;99010.36;4463696;78;22145;-90
2022/11/25 02:01:59;;;;;;;78.07;38.78;;;;;;;0.55;100.00;99002.59;4480729;78;20997;-91
2022/11/25 02:08:01;;;;;;;91.30;41.92;;;;;;;0.60;100.00;98991.66;4463852;78;21080;-90
2022/11/25 02:14:03;;;;;;;78.87;39.00;;;;;;;0.64;100.00;98990.75;4484347;78;21019;-90
2022/11/25 02:20:10;;;;;;;95.42;43.48;;;;;;;0.61;100.00;98987.30;4493471;78;21037;-90
2022/11/25 02:26:13;;;;;;;93.42;42.67;;;;;;;0.62;100.00;98990.80;4483582;78;21022;-90
2022/11/25 02:32:15;;;;;;;93.95;41.92;;;;;;;0.58;100.00;98992.53;4485309;78;21536;-90
2022/11/25 02:38:25;;;;;;;90.70;39.63;;;;;;;0.55;100.00;98996.63;4567455;76;21030;-90
2022/11/25 02:44:26;;;;;;;78.40;37.70;;;;;;;0.53;100.00;98996.16;4575757;76;20993;-90
2022/11/25 02:50:29;;;;;;;74.75;37.13;;;;;;;0.49;100.00;98995.17;4571502;76;21474;-91
2022/11/25 02:56:33;;;;;;;82.22;37.88;;;;;;;0.57;100.00;99003.85;4574485;76;21402;-90
2022/11/25 03:02:35;;;;;;;90.55;41.15;;;;;;;0.57;100.00;99007.09;4551817;77;20961;-90
2022/11/25 03:08:37;;;;;;;75.57;36.73;;;;;;;0.58;100.00;99005.43;4565199;77;21015;-90
2022/11/25 03:14:43;;;;;;;78.42;37.93;;;;;;;0.58;100.00;99011.39;4549903;77;21023;-89
2022/11/25 03:20:44;;;;;;;78.30;38.25;;;;;;;0.59;100.00;99015.13;4464405;77;21048;-91
2022/11/25 03:26:46;;;;;;;76.40;37.08;;;;;;;0.57;100.00;99013.28;4372545;79;21907;-90
2022/11/25 03:32:48;;;;;;;77.10;36.40;;;;;;;0.61;100.00;99016.16;4503529;77;20990;-90
2022/11/25 03:38:51;;;;;;;72.30;35.98;;;;;;;0.67;100.00;99020.30;4560756;76;20998;-91
2022/11/25 03:44:53;;;;;;;74.42;35.03;;;;;;;0.70;100.00;99029.11;4351048;77;1991547;-91
2022/11/25 03:50:55;;;;;;;72.05;33.13;;;;;;;0.64;100.00;99029.81;4398338;80;21674;-90
2022/11/25 03:56:59;;;;;;;69.00;33.58;;;;;;;0.64;100.00;99040.59;4403019;80;22506;-90
2022/11/25 04:03:03;;;;;;;77.95;36.05;;;;;;;0.66;100.00;99041.63;4381880;80;21154;-90
2022/11/25 04:09:08;;;;;;;77.25;38.55;;;;;;;0.66;100.00;99038.36;4366715;80;21104;-90
2022/11/25 04:15:16;;;;;;;71.95;35.03;;;;;;;0.67;100.00;99037.81;4360631;80;21035;-90
2022/11/25 04:21:18;;;;;;;74.75;37.03;;;;;;;0.68;100.00;99050.17;4395213;80;21048;-90
2022/11/25 04:27:20;;;;;;;68.62;34.03;;;;;;;0.68;100.00;99047.48;4377947;80;20952;-91
2022/11/25 04:33:22;;;;;;;65.40;31.77;;;;;;;0.65;100.00;99049.45;4370777;80;21546;-91
2022/11/25 04:39:23;;;;;;;68.33;36.00;;;;;;;0.71;100.00;99046.86;4384154;80;21492;-90
2022/11/25 04:45:26;;;;;;;70.03;34.78;;;;;;;0.77;100.00;99053.16;4387437;80;20968;-89
2022/11/25 04:51:29;;;;;;;70.32;35.55;;;;;;;0.74;100.00;99052.43;4378932;80;21044;-91
2022/11/25 04:57:32;;;;;;;61.60;34.48;;;;;;;0.74;100.00;99058.36;4382431;79;21554;-91
2022/11/25 05:03:37;;;;;;;66.75;34.45;;;;;;;0.75;100.00;99062.67;4361927;80;21021;-91
2022/11/25 05:09:38;;;;;;;63.33;33.45;;;;;;;0.79;100.00;99071.17;4377197;79;21051;-91
2022/11/25 05:15:44;;;;;;;56.45;29.40;;;;;;;0.80;100.00;99076.79;4346862;79;21076;-90
2022/11/25 05:21:47;;;;;;;60.38;28.23;;;;;;;0.83;100.00;99080.22;4391166;80;21024;-89
2022/11/25 05:27:49;;;;;;;55.70;28.47;;;;;;;0.85;100.00;99082.05;4379083;80;21642;-89
2022/11/25 05:33:51;;;;;;;59.35;31.45;;;;;;;0.90;100.00;99081.93;4387624;80;21056;-90
2022/11/25 05:39:53;;;;;;;56.83;29.15;;;;;;;0.91;100.00;99090.25;4382581;80;21009;-90
2022/11/25 05:45:56;;;;;;;65.20;31.15;;;;;;;0.93;100.00;99095.33;4392190;79;21020;-89
2022/11/25 05:52:00;;;;;;;69.92;33.25;;;;;;;0.95;100.00;99103.91;4373535;80;20980;-89
2022/11/25 05:58:05;;;;;;;66.65;32.50;;;;;;;0.98;100.00;99110.83;4349741;80;21034;-90
2022/11/25 06:04:10;;;;;;;58.83;30.60;;;;;;;0.98;100.00;99116.22;4384875;80;20996;-90
2022/11/25 06:10:12;;;;;;;74.15;37.00;;;;;;;1.02;100.00;99120.42;4387892;80;20993;-90
2022/11/25 06:16:19;;;;;;;74.03;36.85;;;;;;;1.05;100.00;99126.00;4387534;80;21090;-90
2022/11/25 06:22:22;;;;;;;70.08;33.80;;;;;;;1.08;100.00;99125.95;4383221;80;21580;-90
2022/11/25 06:28:27;;;;;;;70.28;34.73;;;;;;;1.11;100.00;99131.50;4391029;80;20972;-89
2022/11/25 06:34:28;;;;;;;76.35;39.08;;;;;;;1.11;100.00;99128.02;4379850;80;21103;-89
2022/11/25 06:40:32;;;;;;;92.20;45.33;;;;;;;1.12;100.00;99136.34;4383047;80;21028;-90
2022/11/25 06:46:33;;;;;;;113.83;53.30;;;;;;;1.11;100.00;99136.89;4382762;80;20992;-89
2022/11/25 06:52:34;;;;;;;119.72;54.75;;;;;;;1.13;100.00;99141.97;4384815;80;20960;-89
2022/11/25 06:58:36;;;;;;;122.47;56.63;;;;;;;1.16;100.00;99143.50;4357242;80;21006;-88
2022/11/25 07:04:39;;;;;;;145.55;67.85;;;;;;;1.17;100.00;99140.27;4319457;81;20986;-88
2022/11/25 07:10:40;;;;;;;125.53;56.80;;;;;;;1.17;100.00;99149.16;4340025;81;20962;-88
2022/11/25 07:16:44;;;;;;;105.27;52.00;;;;;;;1.22;100.00;99152.27;4346974;81;21001;-88
2022/11/25 07:22:46;;;;;;;112.08;53.85;;;;;;;1.27;100.00;99152.11;4343735;81;21636;-88
2022/11/25 07:28:49;;;;;;;100.62;49.25;;;;;;;1.32;100.00;99147.39;4313868;81;21447;-88
2022/11/25 07:34:50;;;;;;;95.67;47.75;;;;;;;1.37;100.00;99156.70;4310935;81;21049;-89
2022/11/25 07:40:53;;;;;;;93.12;47.35;;;;;;;1.43;100.00;99159.50;4325035;81;21090;-89
2022/11/25 07:46:55;;;;;;;103.53;50.40;;;;;;;1.50;100.00;99159.06;4338732;81;21125;-88
2022/11/25 07:52:56;;;;;;;119.70;59.73;;;;;;;1.51;100.00;99169.53;4336092;81;21066;-89
2022/11/25 07:58:58;;;;;;;111.17;57.35;;;;;;;1.53;100.00;99185.41;4362738;80;21044;-88
2022/11/25 08:04:59;;;;;;;101.87;54.03;;;;;;;1.55;100.00;99185.33;4404517;80;21619;-88
2022/11/25 08:11:07;;;;;;;95.75;51.15;;;;;;;1.59;100.00;99194.41;4391880;80;21586;-88
2022/11/25 08:17:09;;;;;;;100.12;53.48;;;;;;;1.65;100.00;99195.06;4403124;80;21728;-88
2022/11/25 08:23:11;;;;;;;105.78;54.27;;;;;;;1.69;100.00;99195.23;4379821;80;20996;-88
2022/11/25 08:29:15;;;;;;;103.85;53.35;;;;;;;1.71;100.00;99195.73;4393456;80;21587;-88
2022/11/25 08:35:19;;;;;;;102.02;55.35;;;;;;;1.76;100.00;99195.02;4384554;80;21020;-88
2022/11/25 08:41:25;;;;;;;96.40;50.78;;;;;;;1.82;100.00;99206.48;4368391;80;21001;-88
2022/11/25 08:47:26;;;;;;;95.07;49.73;;;;;;;1.87;100.00;99209.02;4392209;80;21810;-87
2022/11/25 08:53:27;;;;;;;89.40;47.03;;;;;;;1.93;100.00;99213.20;4383238;80;21095;-88
2022/11/25 08:59:29;;;;;;;93.42;51.15;;;;;;;1.99;100.00;99216.77;4352998;80;21541;-87
2022/11/25 09:05:34;;;;;;;103.10;55.03;;;;;;;2.02;100.00;99219.41;4318449;81;21534;-88
2022/11/25 09:11:37;;;;;;;99.47;55.52;;;;;;;2.07;100.00;99218.70;4324745;81;21004;-88
2022/11/25 09:17:37;;;;;;;111.20;57.45;;;;;;;2.13;100.00;99220.72;4333641;81;20946;-86
2022/11/25 09:23:41;;;;;;;107.63;57.08;;;;;;;2.17;100.00;99221.66;4260227;82;21079;-88
2022/11/25 09:29:43;;;;;;;113.20;62.67;;;;;;;2.23;100.00;99224.45;4330994;81;20985;-86
2022/11/25 09:35:44;;;;;;;121.25;66.00;;;;;;;2.32;100.00;99227.41;4328862;81;20950;-88
2022/11/25 09:48:26;;;;;;;114.65;64.17;;;;;;;2.54;100.00;99227.30;4336027;81;21217;-86
2022/11/25 09:54:42;;;;;;;135.22;73.67;;;;;;;2.67;100.00;99239.07;4324228;81;21025;-86
2022/11/25 10:00:48;;;;;;;114.45;59.27;;;;;;;2.80;100.00;99236.20;4304975;81;21084;-86
2022/11/25 10:07:18;;;;;;;113.00;58.40;;;;;;;2.97;100.00;99228.66;4343483;81;21005;-87
2022/11/25 10:20:31;;;;;;;129.35;62.80;;;;;;;3.21;100.00;99229.73;4375481;80;21099;-88
2022/11/25 10:26:38;;;;;;;129.87;63.00;;;;;;;3.44;100.00;99228.19;4384367;80;21042;-88
2022/11/25 10:32:44;;;;;;;128.07;64.75;;;;;;;3.60;100.00;99233.32;4381449;80;21032;-88
2022/11/25 10:39:26;;;;;;;133.63;66.22;;;;;;;3.72;100.00;99238.30;4384015;80;21107;-87
2022/11/25 10:45:32;;;;;;;120.08;60.63;;;;;;;3.87;100.00;99243.75;4386222;80;21919;-88
2022/11/25 10:51:46;;;;;;;111.93;59.77;;;;;;;3.95;100.00;99241.53;4391139;80;20988;-88
2022/11/25 10:57:48;;;;;;;115.10;61.18;;;;;;;4.07;100.00;99238.95;4363246;80;21056;-88
2022/11/25 11:04:05;;;;;;;118.90;61.15;;;;;;;4.14;100.00;99246.00;4331118;81;20979;-87
2022/11/25 11:10:23;;;;;;;112.05;59.75;;;;;;;4.22;100.00;99243.25;4340167;81;20964;-88
2022/11/25 11:16:30;;;;;;;117.60;61.73;;;;;;;4.32;100.00;99240.73;4330748;81;21548;-88
2022/11/25 11:22:34;;;;;;;119.22;63.00;;;;;;;4.41;100.00;99244.18;4326395;81;21038;-88
2022/11/25 11:28:40;;;;;;;111.35;60.20;;;;;;;4.53;100.00;99245.61;4315125;81;21031;-88
2022/11/25 11:34:55;;;;;;;110.48;55.98;;;;;;;4.65;100.00;99242.41;4289276;82;21520;-88
2022/11/25 11:41:17;;;;;;;111.90;59.58;;;;;;;4.75;100.00;99246.10;4293195;81;21076;-88
2022/11/25 11:47:42;;;;;;;93.20;51.02;;;;;;;4.84;100.00;99241.40;4281841;82;21035;-88
2022/11/25 12:14:33;;;;;;;94.77;49.95;;;;;;;4.88;100.00;99243.45;4115083;84;20991;-88
2022/11/25 12:21:00;;;;;;;89.60;50.63;;;;;;;4.98;100.00;99250.61;4107983;84;21604;-88
2022/11/25 12:27:19;;;;;;;82.45;45.45;;;;;;;5.08;100.00;99247.51;4107915;85;21075;-88
2022/11/25 12:33:35;;;;;;;85.45;48.00;;;;;;;5.17;100.00;99252.29;4109208;85;21075;-88
2022/11/25 12:39:46;;;;;;;82.17;46.73;;;;;;;5.27;100.00;99252.45;4106970;84;21007;-87
2022/11/25 12:45:52;;;;;;;82.90;45.05;;;;;;;5.36;100.00;99255.31;4116290;85;20959;-88
2022/11/25 12:52:27;;;;;;;61.33;33.10;;;;;;;5.35;100.00;99252.93;4106071;84;21287;-88
2022/11/25 12:58:43;;;;;;;86.60;45.50;;;;;;;5.41;100.00;99245.61;4105858;84;21113;-87
2022/11/25 13:18:55;;;;;;;73.97;41.20;;;;;;;5.47;100.00;99252.41;4157571;82;21000;-88
2022/11/25 13:24:58;;;;;;;74.70;42.83;;;;;;;5.43;100.00;99256.13;4194113;83;21028;-88
2022/11/25 13:31:31;;;;;;;83.47;45.33;;;;;;;5.45;100.00;99251.94;4204730;83;21484;-87
2022/11/25 13:37:39;;;;;;;78.70;42.40;;;;;;;5.51;100.00;99256.03;4179930;83;21082;-87
2022/11/25 13:44:22;;;;;;;81.67;43.38;;;;;;;5.57;100.00;99258.78;4184968;83;21039;-87
2022/11/25 13:50:24;;;;;;;69.00;41.10;;;;;;;5.57;100.00;99259.34;4194395;82;21079;-87
2022/11/25 13:56:36;;;;;;;68.75;39.50;;;;;;;5.57;100.00;99275.08;4205868;82;21021;-88
2022/11/25 14:02:48;;;;;;;70.12;40.80;;;;;;;5.44;100.00;99268.02;4162627;83;21038;-88
2022/11/25 14:08:56;;;;;;;68.28;36.75;;;;;;;5.44;100.00;99279.42;4163361;82;21055;-87
2022/11/25 14:15:18;;;;;;;66.45;36.68;;;;;;;5.35;100.00;99281.44;4211764;81;21134;-88
2022/11/25 14:21:53;;;;;;;63.10;36.45;;;;;;;5.27;100.00;99281.75;4207033;82;21067;-88
2022/11/25 14:28:13;;;;;;;67.37;37.13;;;;;;;5.27;100.00;99284.47;4207288;82;21619;-88
2022/11/25 14:34:33;;;;;;;71.28;41.08;;;;;;;5.19;100.00;99279.09;4212086;82;21051;-88
2022/11/25 14:40:55;;;;;;;67.35;38.85;;;;;;;5.09;100.00;99279.52;4215522;82;21012;-87
2022/11/25 14:46:59;;;;;;;75.83;42.08;;;;;;;5.08;100.00;99286.86;4209730;83;21071;-88
2022/11/25 14:53:10;;;;;;;75.47;39.67;;;;;;;5.06;100.00;99284.25;4192269;82;21059;-87
2022/11/25 14:59:11;;;;;;;82.70;46.00;;;;;;;5.06;100.00;99294.52;4208871;82;21003;-88
2022/11/25 15:11:37;;;;;;;74.50;41.75;;;;;;;4.91;100.00;99301.91;4376109;74;77509;-88
2022/11/25 15:17:39;;;;;;;77.67;43.13;;;;;;;4.84;100.00;99313.83;4265184;82;21106;-87
2022/11/25 15:23:42;;;;;;;73.35;40.83;;;;;;;4.81;100.00;99311.23;4270021;81;21980;-87
2022/11/25 15:29:46;;;;;;;90.30;49.08;;;;;;;4.78;100.00;99308.37;4206964;83;21580;-88
2022/11/25 15:35:47;;;;;;;77.25;44.23;;;;;;;4.65;100.00;99308.84;4170806;83;21031;-88
2022/11/25 15:42:10;;;;;;;80.83;46.35;;;;;;;4.67;100.00;99309.88;4225586;82;21478;-87
2022/11/25 15:48:40;;;;;;;78.72;46.28;;;;;;;4.65;100.00;99315.63;4159564;83;21522;-88
2022/11/25 15:54:46;;;;;;;87.22;47.58;;;;;;;4.57;100.00;99315.11;4163015;83;22016;-87
2022/11/25 16:01:05;;;;;;;;;;;;;;;4.48;100.00;99317.08;4166067;83;21003;-88
2022/11/25 16:07:14;;;;;;;75.52;41.30;;;;;;;4.47;100.00;99314.15;4183901;84;20513;-87
2022/11/25 16:13:27;;;;;;;96.50;54.83;;;;;;;4.43;100.00;99317.84;4197035;83;21101;-87
2022/11/25 16:19:33;;;;;;;100.80;55.03;;;;;;;4.37;100.00;99326.70;4195409;83;21503;-87
2022/11/25 16:25:35;;;;;;;111.60;66.05;;;;;;;4.35;100.00;99331.64;4190186;82;20983;-87
2022/11/25 16:31:36;;;;;;;112.88;63.98;;;;;;;4.30;100.00;99336.47;4197826;83;21026;-87
2022/11/25 16:37:37;;;;;;;113.57;59.93;;;;;;;4.28;100.00;99337.34;4256649;81;21002;-87
2022/11/25 16:43:39;;;;;;;97.53;54.40;;;;;;;4.24;100.00;99334.51;4248243;82;21045;-89
2022/11/25 16:49:40;;;;;;;96.25;57.05;;;;;;;4.22;100.00;99342.16;4252789;81;21061;-88
2022/11/25 16:55:45;;;;;;;102.50;60.33;;;;;;;4.13;100.00;99333.83;4261957;81;21014;-87
2022/11/25 17:01:47;;;;;;;102.45;63.85;;;;;;;4.11;100.00;99336.86;4252247;82;21048;-87
2022/11/25 17:07:49;;;;;;;104.55;60.80;;;;;;;4.10;100.00;99333.89;4264340;81;21089;-88
2022/11/25 17:13:52;;;;;;;98.22;61.63;;;;;;;4.02;100.00;99351.00;4226417;82;20978;-87
2022/11/25 17:19:54;;;;;;;101.33;62.38;;;;;;;3.98;100.00;99350.03;4266375;82;21137;-88
2022/11/25 17:25:57;;;;;;;102.97;66.10;;;;;;;3.92;100.00;99352.69;4194414;82;21021;-87
2022/11/25 17:31:59;;;;;;;112.08;68.52;;;;;;;3.87;100.00;99352.84;4239682;81;21014;-87
2022/11/25 17:38:00;;;;;;;110.45;69.75;;;;;;;3.87;100.00;99350.14;4176116;82;21044;-87
2022/11/25 17:44:01;;;;;;;117.35;67.97;;;;;;;3.87;100.00;99349.37;4172283;83;21009;-87
2022/11/25 17:50:24;;;;;;;103.05;61.35;;;;;;;3.86;100.00;99363.45;4243512;83;21014;-87
2022/11/25 17:56:28;;;;;;;95.55;59.70;;;;;;;3.76;100.00;99368.42;4225538;81;21044;-88
2022/11/25 18:02:30;;;;;;;120.22;74.32;;;;;;;3.62;100.00;99376.70;4174431;84;21033;-88
2022/11/25 18:09:10;;;;;;;112.62;66.10;;;;;;;3.57;100.00;99380.92;4182660;81;22329;-87
2022/11/25 18:21:32;;;;;;;103.17;61.10;;;;;;;3.50;100.00;99386.58;4199198;83;21099;-87
2022/11/25 18:27:34;;;;;;;146.40;86.72;;;;;;;3.36;100.00;99384.04;4216832;83;21101;-87
2022/11/25 18:33:35;;;;;;;148.53;86.28;;;;;;;3.23;100.00;99397.95;4277204;82;20999;-87
2022/11/25 18:39:37;;;;;;;180.32;100.35;;;;;;;3.23;100.00;99407.98;4264007;82;21030;-87
2022/11/25 18:45:39;;;;;;;151.78;83.17;;;;;;;3.25;100.00;99409.81;4217463;83;21017;-87
2022/11/25 18:51:44;;;;;;;142.53;79.00;;;;;;;3.33;100.00;99412.28;4146100;84;21026;-88
2022/11/25 18:57:50;;;;;;;148.55;84.03;;;;;;;3.35;100.00;99418.99;4044406;79;10000494;-87
2022/11/25 19:03:54;;;;;;;151.75;85.35;;;;;;;3.39;100.00;99419.13;4264577;82;21786;-88
2022/11/25 19:09:55;;;;;;;123.70;72.50;;;;;;;3.46;100.00;99425.66;4165347;83;21678;-87
2022/11/25 19:16:05;;;;;;;129.45;74.77;;;;;;;3.52;100.00;99433.89;4176309;83;21051;-88
2022/11/25 19:22:13;;;;;;;106.47;63.92;;;;;;;3.57;100.00;99435.64;4168481;84;21015;-89
2022/11/25 19:28:16;;;;;;;130.47;74.42;;;;;;;3.58;100.00;99443.98;4264614;82;21329;-88
2022/11/25 19:34:28;;;;;;;102.30;62.03;;;;;;;3.54;100.00;99445.17;4259110;81;21046;-89
2022/11/25 19:40:31;;;;;;;139.47;77.37;;;;;;;3.50;100.00;99456.95;4268136;82;21035;-90
2022/11/25 19:46:33;;;;;;;149.68;81.37;;;;;;;3.43;100.00;99453.36;4171575;83;22299;-87
2022/11/25 19:52:38;;;;;;;144.93;81.63;;;;;;;3.54;100.00;99448.45;4161189;83;21009;-89
2022/11/25 19:58:40;;;;;;;130.57;73.00;;;;;;;3.57;100.00;99444.53;4166876;82;9999635;-88
2022/11/25 20:04:44;;;;;;;118.22;61.95;;;;;;;3.58;100.00;99447.50;4205293;82;21023;-88
2022/11/25 20:10:46;;;;;;;100.58;58.00;;;;;;;3.67;100.00;99451.55;4215495;82;21061;-89
2022/11/25 20:37:12;;;;;;;138.15;74.95;;;;;;;3.72;100.00;99477.92;4256855;82;21904;-88
2022/11/25 20:43:37;;;;;;;127.60;72.35;;;;;;;3.72;100.00;99481.98;4248764;82;21017;-89
2022/11/25 20:49:39;;;;;;;151.70;86.30;;;;;;;3.68;100.00;99481.01;4251150;82;20974;-87
2022/11/25 20:55:40;;;;;;;171.89;97.52;;;;;;;3.67;100.00;99489.45;4134947;82;10000382;-89
2022/11/25 21:01:43;;;;;;;190.22;103.80;;;;;;;3.63;100.00;99493.38;4282293;82;21095;-89
2022/11/25 21:07:48;;;;;;;191.73;108.12;;;;;;;3.60;100.00;99485.08;4248911;82;21009;-88
2022/11/25 21:13:50;;;;;;;147.32;84.32;;;;;;;3.56;100.00;99495.73;4234504;83;20991;-88
2022/11/25 21:19:52;;;;;;;119.15;69.35;;;;;;;3.53;100.00;99495.56;4152487;84;21677;-88
2022/11/25 21:25:58;;;;;;;86.75;49.42;;;;;;;3.51;100.00;99498.59;4220337;83;21010;-87
2022/11/25 21:31:59;;;;;;;74.30;36.00;;;;;;;3.56;100.00;99497.09;4231614;83;21896;-89
2022/11/25 21:38:04;;;;;;;70.28;37.35;;;;;;;3.64;100.00;99492.80;4220351;83;21089;-89
2022/11/25 21:50:52;;;;;;;73.45;39.48;;;;;;;3.72;100.00;99500.94;4228667;83;21003;-89
2022/11/25 21:56:56;;;;;;;61.53;32.28;;;;;;;3.71;100.00;99505.32;4272257;81;21061;-87
2022/11/25 22:02:57;;;;;;;60.30;31.85;;;;;;;3.78;100.00;99512.39;4256344;82;21157;-88
2022/11/25 22:08:58;;;;;;;51.02;28.10;;;;;;;3.85;100.00;99508.13;4250653;81;21045;-88
2022/11/25 22:15:01;;;;;;;55.48;31.75;;;;;;;3.90;100.00;99516.64;4315874;81;21866;-89
2022/11/25 22:29:29;;;;;;;63.63;32.73;;;;;;;3.88;100.00;99517.52;4159308;83;21032;-88
2022/11/25 22:35:56;;;;;;;69.07;35.35;;;;;;;3.79;100.00;99518.07;4222099;84;20983;-87
2022/11/25 22:42:01;;;;;;;;;;;;;;;3.76;100.00;99513.30;4232346;82;21075;-88
2022/11/25 22:48:05;;;;;;;125.02;58.30;;;;;;;3.72;100.00;99525.31;4245825;82;20552;-88
2022/11/25 22:54:10;;;;;;;75.92;43.28;;;;;;;3.68;100.00;99528.39;4183123;84;21006;-88
2022/11/25 23:00:20;;;;;;;85.60;48.13;;;;;;;3.62;100.00;99532.37;4186844;84;21096;-87
2022/11/25 23:06:21;;;;;;;99.65;52.05;;;;;;;3.58;100.00;99542.25;4243261;82;21006;-89
2022/11/25 23:12:22;;;;;;;93.52;50.63;;;;;;;3.53;100.00;99545.64;4257171;82;22244;-88
2022/11/25 23:18:41;;;;;;;85.15;48.68;;;;;;;3.51;100.00;99555.44;4246394;82;21576;-87
2022/11/25 23:31:16;;;;;;;85.30;48.00;;;;;;;3.47;100.00;99570.72;4183342;84;21123;-90
2022/11/25 23:37:17;;;;;;;89.42;49.33;;;;;;;3.40;100.00;99569.59;4241718;82;21017;-87
2022/11/25 23:49:53;;;;;;;93.62;49.70;;;;;;;3.23;100.00;99564.13;4182481;84;21098;-88
2022/11/25 23:55:56;;;;;;;97.12;55.63;;;;;;;3.27;100.00;99567.23;4181458;84;21058;-87
